Time;durP1;ratioP1;P1;durP2;ratioP2;P2;SDS_P1;SDS_P2;PMS_P1;PMS_P2;Temp;Humidity;BMP_temperature;BMP_pressure;BME280_temperature;BME280_humidity;BME280_pressure;Samples;Min_cycle;Max_cycle;Signal;HPM_P1;HPM_P2
2021/07/02 00:02:45;;;;;;;;;;;;;;;-144.31;100.00;58022.63;5015616;28;19917;-67
2021/07/02 00:06:09;;;;;;;;;;;;;;;-144.31;100.00;58022.63;5016712;28;19917;-67
2021/07/02 00:09:33;;;;;;;;;;;;;;;-144.31;100.00;58022.63;5014990;28;19925;-67
2021/07/02 00:12:57;;;;;;;;;;;;;;;-144.31;100.00;58022.63;5014592;28;19921;-69
2021/07/02 00:16:21;;;;;;;;;;;;;;;-144.31;100.00;58022.63;5016420;28;19961;-67
2021/07/02 00:19:45;;;;;;;;;;;;;;;-144.31;100.00;58022.63;5015284;28;20317;-68
2021/07/02 00:23:09;;;;;;;;;;;;;;;-144.31;100.00;58022.63;5015619;28;19921;-68
2021/07/02 00:26:35;;;;;;;;;;;;;;;-144.31;100.00;58022.63;5025281;28;19974;-67
2021/07/02 00:29:59;;;;;;;;;;;;;;;-144.31;100.00;58022.63;5016608;28;20424;-67
2021/07/02 00:33:23;;;;;;;;;;;;;;;-144.31;100.00;58022.63;5017146;28;20008;-68
2021/07/02 00:36:47;;;;;;;;;;;;;;;-144.31;100.00;58022.63;5015603;28;19921;-69
2021/07/02 00:40:11;;;;;;;;;;;;;;;-144.31;100.00;58022.63;5018981;28;19926;-69
2021/07/02 00:43:37;;;;;;;;;;;;;;;-144.31;100.00;58022.63;5016313;28;19975;-69
2021/07/02 00:47:01;;;;;;;;;;;;;;;-144.31;100.00;58022.63;5031018;28;19991;-69
2021/07/02 00:50:25;;;;;;;;;;;;;;;-144.31;100.00;58022.63;5022589;28;19928;-69
2021/07/02 00:53:49;;;;;;;;;;;;;;;-144.31;100.00;58022.63;5017780;28;20314;-69
2021/07/02 00:57:14;;;;;;;;;;;;;;;-144.31;100.00;58022.63;5033810;28;19917;-69
2021/07/02 01:00:38;;;;;;;;;;;;;;;-144.31;100.00;58022.63;5015874;28;20382;-69
2021/07/02 01:04:05;;;;;;;;;;;;;;;-144.31;100.00;58022.63;5031348;28;19920;-69
2021/07/02 01:07:31;;;;;;;;;;;;;;;-144.31;100.00;58022.63;5035334;28;20057;-69
2021/07/02 01:10:57;;;;;;;;;;;;;;;-144.31;100.00;58022.63;5002471;28;19926;-69
2021/07/02 01:14:22;;;;;;;;;;;;;;;-144.31;100.00;58022.63;5036224;28;20361;-69
2021/07/02 01:17:46;;;;;;;;;;;;;;;-144.31;100.00;58022.63;5026217;28;20020;-69
2021/07/02 01:21:11;;;;;;;;;;;;;;;-144.31;100.00;58022.63;5035346;28;19928;-69
2021/07/02 01:24:35;;;;;;;;;;;;;;;-144.31;100.00;58022.63;5022297;28;20306;-69
2021/07/02 01:28:00;;;;;;;;;;;;;;;-144.31;100.00;58022.63;5035046;28;19921;-69
2021/07/02 01:31:26;;;;;;;;;;;;;;;-144.31;100.00;58022.63;5016598;28;20012;-69
2021/07/02 01:34:50;;;;;;;;;;;;;;;-144.31;100.00;58022.63;5020906;28;19921;-69
2021/07/02 01:38:14;;;;;;;;;;;;;;;-144.31;100.00;58022.63;5019344;28;19921;-69
2021/07/02 01:41:41;;;;;;;;;;;;;;;-144.31;100.00;58022.63;5024980;28;19917;-69
2021/07/02 01:45:06;;;;;;;;;;;;;;;-144.31;100.00;58022.63;5022166;28;19917;-70
2021/07/02 01:48:31;;;;;;;;;;;;;;;-144.31;100.00;58022.63;5018370;28;19931;-69
2021/07/02 01:51:56;;;;;;;;;;;;;;;-144.31;100.00;58022.63;5018387;28;19924;-69
2021/07/02 01:55:23;;;;;;;;;;;;;;;-144.31;100.00;58022.63;5024210;28;19943;-70
2021/07/02 01:58:50;;;;;;;;;;;;;;;-144.31;100.00;58022.63;5020792;28;19921;-69
2021/07/02 02:02:36;;;;;;;;;;;;;;;-144.31;100.00;58022.63;5018495;28;19925;-69
2021/07/02 02:10:29;;;;;;;;;;;;;;;-144.31;100.00;58022.63;5023680;22;19940;-78
2021/07/02 02:13:53;;;;;;;;;;;;;;;-144.31;100.00;58022.63;5013106;28;19931;-78
2021/07/02 02:17:18;;;;;;;;;;;;;;;-144.31;100.00;58022.63;5043180;28;19947;-79
2021/07/02 02:20:45;;;;;;;;;;;;;;;-144.31;100.00;58022.63;5043460;28;19921;-77
2021/07/02 02:24:10;;;;;;;;;;;;;;;-144.31;100.00;58022.63;5034586;28;19937;-78
2021/07/02 02:27:35;;;;;;;;;;;;;;;-144.31;100.00;58022.63;5028024;28;20472;-79
2021/07/02 02:30:59;;;;;;;;;;;;;;;-144.31;100.00;58022.63;5027721;28;20385;-78
2021/07/02 02:34:26;;;;;;;;;;;;;;;-144.31;100.00;58022.63;5026761;28;20051;-78
2021/07/02 02:37:50;;;;;;;;;;;;;;;-144.31;100.00;58022.63;5026608;28;20380;-77
2021/07/02 02:41:14;;;;;;;;;;;;;;;-144.31;100.00;58022.63;5018561;28;19949;-77
2021/07/02 02:44:40;;;;;;;;;;;;;;;-144.31;100.00;58022.63;5003070;28;20027;-78
2021/07/02 02:48:05;;;;;;;;;;;;;;;-144.31;100.00;58022.63;5020500;28;20460;-79
2021/07/02 02:51:29;;;;;;;;;;;;;;;-144.31;100.00;58022.63;5026784;28;19925;-78
2021/07/02 02:54:54;;;;;;;;;;;;;;;-144.31;100.00;58022.63;5027318;28;19925;-80
2021/07/02 02:58:18;;;;;;;;;;;;;;;-144.31;100.00;58022.63;5032331;28;19921;-77
2021/07/02 03:01:42;;;;;;;;;;;;;;;-144.31;100.00;58022.63;5028925;28;19921;-78
2021/07/02 03:05:07;;;;;;;;;;;;;;;-144.31;100.00;58022.63;5030140;28;19974;-78
2021/07/02 03:08:31;;;;;;;;;;;;;;;-144.31;100.00;58022.63;5011908;28;20008;-77
2021/07/02 03:11:55;;;;;;;;;;;;;;;-144.31;100.00;58022.63;5043806;28;19925;-79
2021/07/02 03:15:19;;;;;;;;;;;;;;;-144.31;100.00;58022.63;5017587;28;20008;-79
2021/07/02 03:18:44;;;;;;;;;;;;;;;-144.31;100.00;58022.63;5030250;28;19954;-77
2021/07/02 03:22:08;;;;;;;;;;;;;;;-144.31;100.00;58022.63;5028695;28;20451;-79
2021/07/02 03:25:36;;;;;;;;;;;;;;;-144.31;100.00;58022.63;5027926;28;19917;-77
2021/07/02 03:29:03;;;;;;;;;;;;;;;-144.31;100.00;58022.63;5026811;28;19928;-79
2021/07/02 03:32:28;;;;;;;;;;;;;;;-144.31;100.00;58022.63;5027794;28;19983;-80
2021/07/02 03:35:54;;;;;;;;;;;;;;;-144.31;100.00;58022.63;5031557;28;19917;-80
2021/07/02 03:39:20;;;;;;;;;;;;;;;-144.31;100.00;58022.63;5014758;28;19983;-79
2021/07/02 03:42:44;;;;;;;;;;;;;;;-144.31;100.00;58022.63;5042073;28;19917;-80
2021/07/02 03:46:10;;;;;;;;;;;;;;;-144.31;100.00;58022.63;5051496;28;19944;-79
2021/07/02 03:49:36;;;;;;;;;;;;;;;-144.31;100.00;58022.63;5041046;28;19931;-79
2021/07/02 03:53:01;;;;;;;;;;;;;;;-144.31;100.00;58022.63;5032485;28;20494;-79
2021/07/02 03:56:25;;;;;;;;;;;;;;;-144.31;100.00;58022.63;5029199;28;20599;-79
2021/07/02 03:59:50;;;;;;;;;;;;;;;-144.31;100.00;58022.63;5044933;28;20296;-78
2021/07/02 04:03:15;;;;;;;;;;;;;;;-144.31;100.00;58022.63;5027031;28;19932;-80
2021/07/02 04:06:41;;;;;;;;;;;;;;;-144.31;100.00;58022.63;5012357;28;19921;-79
2021/07/02 04:10:05;;;;;;;;;;;;;;;-144.31;100.00;58022.63;5042478;28;19929;-79
2021/07/02 04:13:29;;;;;;;;;;;;;;;-144.31;100.00;58022.63;5026824;28;19932;-79
2021/07/02 04:16:53;;;;;;;;;;;;;;;-144.31;100.00;58022.63;5026667;28;19924;-80
2021/07/02 04:20:17;;;;;;;;;;;;;;;-144.31;100.00;58022.63;5043616;28;19921;-80
2021/07/02 04:23:41;;;;;;;;;;;;;;;-144.31;100.00;58022.63;5029806;28;19944;-79
2021/07/02 04:27:05;;;;;;;;;;;;;;;-144.31;100.00;58022.63;5048603;28;19941;-79
2021/07/02 04:30:28;;;;;;;;;;;;;;;-144.31;100.00;58022.63;5029962;28;20027;-78
2021/07/02 04:33:52;;;;;;;;;;;;;;;-144.31;100.00;58022.63;5035657;28;19921;-79
2021/07/02 04:37:16;;;;;;;;;;;;;;;-144.31;100.00;58022.63;5031152;28;19928;-80
2021/07/02 04:40:40;;;;;;;;;;;;;;;-144.31;100.00;58022.63;5026728;28;20003;-79
2021/07/02 04:44:04;;;;;;;;;;;;;;;-144.31;100.00;58022.63;5001263;28;20055;-79
2021/07/02 04:47:28;;;;;;;;;;;;;;;-144.31;100.00;58022.63;5028530;28;20024;-80
2021/07/02 04:50:52;;;;;;;;;;;;;;;-144.31;100.00;58022.63;5022249;28;19935;-79
2021/07/02 04:54:16;;;;;;;;;;;;;;;-144.31;100.00;58022.63;5029312;28;20452;-80
2021/07/02 04:57:40;;;;;;;;;;;;;;;-144.31;100.00;58022.63;5029805;28;20666;-79
2021/07/02 05:01:04;;;;;;;;;;;;;;;-144.31;100.00;58022.63;5024929;28;19932;-79
2021/07/02 05:04:28;;;;;;;;;;;;;;;-144.31;100.00;58022.63;5028902;28;20007;-80
2021/07/02 05:07:52;;;;;;;;;;;;;;;-144.31;100.00;58022.63;5029871;28;19921;-80
2021/07/02 05:11:16;;;;;;;;;;;;;;;-144.31;100.00;58022.63;5042039;28;19953;-79
2021/07/02 05:14:40;;;;;;;;;;;;;;;-144.31;100.00;58022.63;5031090;28;19960;-79
2021/07/02 05:18:04;;;;;;;;;;;;;;;-144.31;100.00;58022.63;5026051;28;20015;-79
2021/07/02 05:21:28;;;;;;;;;;;;;;;-144.31;100.00;58022.63;5029313;28;19921;-80
2021/07/02 05:24:52;;;;;;;;;;;;;;;-144.31;100.00;58022.63;5013731;28;19926;-80
2021/07/02 05:28:16;;;;;;;;;;;;;;;-144.31;100.00;58022.63;5005515;28;19940;-80
2021/07/02 05:31:40;;;;;;;;;;;;;;;-144.31;100.00;58022.63;5029136;28;20316;-80
2021/07/02 05:35:05;;;;;;;;;;;;;;;-144.31;100.00;58022.63;5027976;28;20408;-79
2021/07/02 05:38:29;;;;;;;;;;;;;;;-144.31;100.00;58022.63;5012366;28;19921;-79
2021/07/02 05:41:54;;;;;;;;;;;;;;;-144.31;100.00;58022.63;5021565;28;20024;-80
2021/07/02 05:45:18;;;;;;;;;;;;;;;-144.31;100.00;58022.63;5029219;28;19925;-78
2021/07/02 05:48:42;;;;;;;;;;;;;;;-144.31;100.00;58022.63;5025059;28;20377;-80
2021/07/02 05:52:06;;;;;;;;;;;;;;;-144.31;100.00;58022.63;5024023;28;21252;-77
2021/07/02 05:55:30;;;;;;;;;;;;;;;-144.31;100.00;58022.63;5027225;28;19921;-78
2021/07/02 05:58:55;;;;;;;;;;;;;;;-144.31;100.00;58022.63;5016465;28;19921;-80
2021/07/02 06:02:21;;;;;;;;;;;;;;;-144.31;100.00;58022.63;5021526;28;19921;-78
2021/07/02 06:05:45;;;;;;;;;;;;;;;-144.31;100.00;58022.63;5019977;28;19921;-77
2021/07/02 06:09:09;;;;;;;;;;;;;;;-144.31;100.00;58022.63;5017068;28;20274;-77
2021/07/02 06:12:36;;;;;;;;;;;;;;;-144.31;100.00;58022.63;5027948;28;19937;-77
2021/07/02 06:16:00;;;;;;;;;;;;;;;-144.31;100.00;58022.63;5020257;28;19921;-76
2021/07/02 06:19:24;;;;;;;;;;;;;;;-144.31;100.00;58022.63;5024004;28;19921;-77
2021/07/02 06:22:48;;;;;;;;;;;;;;;-144.31;100.00;58022.63;5021998;28;20423;-77
2021/07/02 06:26:13;;;;;;;;;;;;;;;-144.31;100.00;58022.63;5025538;28;19925;-77
2021/07/02 06:29:37;;;;;;;;;;;;;;;-144.31;100.00;58022.63;5020656;28;19931;-77
2021/07/02 06:33:01;;;;;;;;;;;;;;;-144.31;100.00;58022.63;5023976;28;20494;-78
2021/07/02 06:36:25;;;;;;;;;;;;;;;-144.31;100.00;58022.63;5023256;28;19931;-77
2021/07/02 06:39:51;;;;;;;;;;;;;;;-144.31;100.00;58022.63;5007107;28;19929;-78
2021/07/02 07:05:11;;;;;;;0.30;0.30;;;;;;;;;;5082593;27;1301648;-79
2021/07/02 07:07:37;;;;;;;0.22;0.22;;;;;;;;;;5108534;28;20050;-79
2021/07/02 07:10:03;;;;;;;0.20;0.20;;;;;;;;;;5128376;28;20027;-80
2021/07/02 07:12:28;;;;;;;0.20;0.20;;;;;;;;;;5120246;28;20026;-78
2021/07/02 07:14:54;;;;;;;0.30;0.30;;;;;;;;;;5100098;28;20283;-79
2021/07/02 07:17:19;;;;;;;0.20;0.20;;;;;;;;;;5104016;28;20040;-78
2021/07/02 07:19:45;;;;;;;0.35;0.35;;;;;;;;;;5078645;28;20020;-80
2021/07/02 07:22:10;;;;;;;0.20;0.20;;;;;;;;;;5086918;28;20031;-80
2021/07/02 07:24:35;;;;;;;0.28;0.28;;;;;;;;;;5102821;28;20035;-78
2021/07/02 07:27:03;;;;;;;0.30;0.30;;;;;;;;;;5102659;28;20027;-79
2021/07/02 07:29:28;;;;;;;0.28;0.28;;;;;;;;;;5101746;28;20076;-79
2021/07/02 07:31:55;;;;;;;0.30;0.30;;;;;;;;;;5099771;28;20050;-79
2021/07/02 07:34:55;;;;;;;0.20;0.20;;;;;;;;;;5103750;27;20042;-79
2021/07/02 07:37:17;;;;;;;0.20;0.20;;;;;;;;;;5092965;28;20115;-79
2021/07/02 07:39:42;;;;;;;0.25;0.25;;;;;;;;;;5101345;28;20670;-77
2021/07/02 07:42:08;;;;;;;0.30;0.30;;;;;;;;;;5099773;28;20028;-79
2021/07/02 07:44:33;;;;;;;0.22;0.22;;;;;;;;;;5098116;28;20100;-78
2021/07/02 07:46:58;;;;;;;0.20;0.20;;;;;;;;;;5078493;28;20090;-78
2021/07/02 07:49:24;;;;;;;0.20;0.20;;;;;;;;;;5096186;28;20234;-78
2021/07/02 07:54:14;;;;;;;0.20;0.20;;;;;;;;;;5094285;28;20020;-79
2021/07/02 07:56:50;;;;;;;0.30;0.30;;;;;;;;;;5079039;28;21350;-79
2021/07/02 07:59:15;;;;;;;0.30;0.30;;;;;;;;;;5100330;28;20468;-78
2021/07/02 08:01:41;;;;;;;0.28;0.28;;;;;;;;;;5097319;28;20103;-78
2021/07/02 08:04:06;;;;;;;0.20;0.20;;;;;;;;;;5094227;28;20027;-79
2021/07/02 08:06:34;;;;;;;0.22;0.22;;;;;;;;;;5100976;28;20030;-78
2021/07/02 08:08:59;;;;;;;0.20;0.20;;;;;;;;;;5103924;28;20063;-78
2021/07/02 08:11:25;;;;;;;0.20;0.20;;;;;;;;;;5079757;28;20046;-79
2021/07/02 08:13:50;;;;;;;0.30;0.30;;;;;;;;;;5094068;28;20148;-78
2021/07/02 08:16:15;;;;;;;0.20;0.20;;;;;;;;;;5084449;28;20051;-77
2021/07/02 08:18:41;;;;;;;0.30;0.30;;;;;;;;;;5089614;28;20022;-77
2021/07/02 08:21:06;;;;;;;0.30;0.30;;;;;;;;;;5082993;28;20038;-78
2021/07/02 08:23:32;;;;;;;0.20;0.20;;;;;;;;;;5090834;28;20107;-78
2021/07/02 08:25:58;;;;;;;0.20;0.20;;;;;;;;;;5084307;28;20020;-78
2021/07/02 08:31:07;;;;;;;0.30;0.30;;;;;;;;;;5079388;28;20024;-78
2021/07/02 08:33:33;;;;;;;0.22;0.22;;;;;;;;;;5085398;28;20035;-76
2021/07/02 08:35:59;;;;;;;0.25;0.25;;;;;;;;;;5085454;28;20055;-78
2021/07/02 08:38:24;;;;;;;0.20;0.20;;;;;;;;;;5089689;28;20538;-77
2021/07/02 08:40:52;;;;;;;0.20;0.20;;;;;;;;;;5084234;28;20032;-78
2021/07/02 08:43:17;;;;;;;0.20;0.20;;;;;;;;;;5080646;28;20119;-78
2021/07/02 08:45:44;;;;;;;0.20;0.20;;;;;;;;;;5087334;28;20095;-77
2021/07/02 08:48:10;;;;;;;0.20;0.20;;;;;;;;;;5072307;28;20039;-77
2021/07/02 08:50:36;;;;;;;0.30;0.30;;;;;;;;;;5086358;28;20107;-76
2021/07/02 08:53:02;;;;;;;0.30;0.30;;;;;;;;;;5080749;28;20019;-77
2021/07/02 08:55:28;;;;;;;0.20;0.20;;;;;;;;;;5070481;28;20085;-77
2021/07/02 08:57:53;;;;;;;0.20;0.20;;;;;;;;;;5085602;28;20912;-77
2021/07/02 09:00:19;;;;;;;0.20;0.20;;;;;;;;;;5081438;28;20028;-78
2021/07/02 09:02:45;;;;;;;0.20;0.20;;;;;;;;;;5083446;28;20051;-76
2021/07/02 09:05:32;;;;;;;0.20;0.20;;;;;;;;;;5086087;28;20016;-77
2021/07/02 09:07:58;;;;;;;0.20;0.20;;;;;;;;;;5084373;28;20016;-77
2021/07/02 09:10:30;;;;;;;0.20;0.20;;;;;;;;;;5104872;27;20073;-77
2021/07/02 09:12:56;;;;;;;0.20;0.20;;;;;;;;;;5085637;28;20082;-78
2021/07/02 09:15:21;;;;;;;0.30;0.30;;;;;;;;;;5081455;28;20079;-76
2021/07/02 09:17:49;;;;;;;0.20;0.20;;;;;;;;;;5081875;28;20036;-77
2021/07/02 09:20:16;;;;;;;0.20;0.20;;;;;;;;;;5084396;28;20015;-78
2021/07/02 09:22:49;;;;;;;0.55;0.20;;;;;;;;;;5079810;28;20035;-77
2021/07/02 09:25:25;;;;;;;0.10;0.10;;;;;;;;;;5087760;28;19923;-78
2021/07/02 09:27:54;;;;;;;0.25;0.25;;;;;;;;;;5084256;28;20028;-75
2021/07/02 09:30:20;;;;;;;0.10;0.10;;;;;;;;;;5083437;28;20091;-77
2021/07/02 09:32:47;;;;;;;0.20;0.20;;;;;;;;;;5077667;28;20024;-78
2021/07/02 09:35:15;;;;;;;0.30;0.30;;;;;;;;;;5086932;28;20024;-78
2021/07/02 09:37:42;;;;;;;0.28;0.28;;;;;;;;;;5082918;28;20024;-76
2021/07/02 09:40:14;;;;;;;0.20;0.20;;;;;;;;;;5085969;28;20031;-78
2021/07/02 09:42:40;;;;;;;0.20;0.20;;;;;;;;;;5071722;28;20031;-77
2021/07/02 09:45:06;;;;;;;0.22;0.22;;;;;;;;;;5067241;28;20031;-78
2021/07/02 09:47:31;;;;;;;0.20;0.20;;;;;;;;;;5085284;28;20499;-76
2021/07/02 09:50:13;;;;;;;0.20;0.20;;;;;;;;;;5084732;28;20035;-77
2021/07/02 09:52:50;;;;;;;0.20;0.20;;;;;;;;;;5082923;28;20043;-76
2021/07/02 09:55:20;;;;;;;0.20;0.20;;;;;;;;;;5088671;28;20039;-78
2021/07/02 09:57:46;;;;;;;0.20;0.20;;;;;;;;;;5087568;28;20012;-77
2021/07/02 10:00:13;;;;;;;0.20;0.20;;;;;;;;;;5082809;28;20033;-77
2021/07/02 10:02:57;;;;;;;0.20;0.20;;;;;;;;;;5084568;28;20039;-77
2021/07/02 10:05:23;;;;;;;0.20;0.20;;;;;;;;;;5089977;28;20020;-74
2021/07/02 10:07:55;;;;;;;0.20;0.20;;;;;;;;;;5089592;28;20084;-76
2021/07/02 10:10:20;;;;;;;0.20;0.20;;;;;;;;;;5075351;28;20024;-76
2021/07/02 10:12:46;;;;;;;0.20;0.20;;;;;;;;;;5084760;28;20093;-76
2021/07/02 10:15:12;;;;;;;0.22;0.22;;;;;;;;;;5080530;28;20081;-76
2021/07/02 10:17:37;;;;;;;0.20;0.20;;;;;;;;;;5084411;28;20032;-77
2021/07/02 10:20:02;;;;;;;0.20;0.20;;;;;;;;;;5084362;28;20086;-76
2021/07/02 10:22:28;;;;;;;0.20;0.20;;;;;;;;;;5087143;28;20591;-77
2021/07/02 10:24:54;;;;;;;0.10;0.10;;;;;;;;;;5089327;28;20043;-76
2021/07/02 10:27:20;;;;;;;0.20;0.20;;;;;;;;;;5067315;28;20039;-76
2021/07/02 10:29:46;;;;;;;0.20;0.20;;;;;;;;;;5034525;28;20046;-77
2021/07/02 10:32:12;;;;;;;0.20;0.20;;;;;;;;;;5077582;28;20024;-76
2021/07/02 10:34:37;;;;;;;0.20;0.20;;;;;;;;;;5085615;28;20036;-76
2021/07/02 10:37:03;;;;;;;0.20;0.20;;;;;;;;;;5083104;28;20443;-75
2021/07/02 10:39:30;;;;;;;0.20;0.20;;;;;;;;;;5089681;28;20054;-77
2021/07/02 10:42:22;;;;;;;0.20;0.20;;;;;;;;;;5089861;28;20610;-77
2021/07/02 10:44:50;;;;;;;0.20;0.20;;;;;;;;;;5070803;28;20048;-77
2021/07/02 10:47:16;;;;;;;0.20;0.20;;;;;;;;;;5069568;28;20039;-76
2021/07/02 10:49:43;;;;;;;0.17;0.17;;;;;;;;;;5083048;28;20032;-76
2021/07/02 10:52:08;;;;;;;;;;;;;;;;;;5085361;28;20058;-77
2021/07/02 10:54:33;;;;;;;0.20;0.20;;;;;;;;;;5088084;28;19916;-77
2021/07/02 10:57:01;;;;;;;0.20;0.20;;;;;;;;;;5080069;28;20034;-76
2021/07/02 10:59:36;;;;;;;0.20;0.15;;;;;;;;;;5061858;28;20115;-76
2021/07/02 11:02:14;;;;;;;0.10;0.10;;;;;;;;;;5085971;28;20683;-76
2021/07/02 11:04:42;;;;;;;0.20;0.20;;;;;;;;;;5072719;28;20132;-77
2021/07/02 11:09:48;;;;;;;0.20;0.20;;;;;;;;;;5074269;28;20032;-77
2021/07/02 11:12:16;;;;;;;0.20;0.20;;;;;;;;;;5079332;28;20020;-77
2021/07/02 11:17:19;;;;;;;0.17;0.17;;;;;;;;;;5084714;28;20846;-76
2021/07/02 11:19:45;;;;;;;0.22;0.22;;;;;;;;;;5073803;28;20020;-77
2021/07/02 11:22:24;;;;;;;0.20;0.20;;;;;;;;;;5086232;28;20489;-76
2021/07/02 11:24:59;;;;;;;0.17;0.17;;;;;;;;;;5080714;28;20082;-76
2021/07/02 11:27:44;;;;;;;0.20;0.20;;;;;;;;;;5084836;28;20020;-75
2021/07/02 11:33:02;;;;;;;0.20;0.20;;;;;;;;;;5082427;28;20043;-78
2021/07/02 11:35:32;;;;;;;0.20;0.20;;;;;;;;;;5080061;28;20165;-76
2021/07/02 11:38:07;;;;;;;0.20;0.20;;;;;;;;;;5079437;28;20031;-77
2021/07/02 11:40:44;;;;;;;0.00;0.00;;;;;;;;;;5058477;28;20202;-76
2021/07/02 11:43:09;;;;;;;0.10;0.10;;;;;;;;;;5081924;28;20074;-76
2021/07/02 11:45:37;;;;;;;0.10;0.10;;;;;;;;;;5073036;28;20961;-76
2021/07/02 11:48:06;;;;;;;0.20;0.20;;;;;;;;;;5080562;28;20029;-76
2021/07/02 11:50:38;;;;;;;0.10;0.10;;;;;;;;;;5086463;28;20530;-76
2021/07/02 11:53:03;;;;;;;0.10;0.10;;;;;;;;;;5083913;28;20201;-75
2021/07/02 11:55:29;;;;;;;0.10;0.10;;;;;;;;;;5090764;28;20657;-76
2021/07/02 11:58:11;;;;;;;0.20;0.20;;;;;;;;;;5091068;28;20123;-75
2021/07/02 12:00:36;;;;;;;0.20;0.20;;;;;;;;;;5089358;28;20092;-76
2021/07/02 12:03:02;;;;;;;0.10;0.10;;;;;;;;;;5073539;28;20032;-76
2021/07/02 12:05:27;;;;;;;0.10;0.10;;;;;;;;;;5081399;28;20089;-77
2021/07/02 12:07:52;;;;;;;0.20;0.20;;;;;;;;;;5085623;28;20031;-77
2021/07/02 12:10:18;;;;;;;0.00;0.00;;;;;;;;;;5086193;28;20036;-77
2021/07/02 12:12:43;;;;;;;0.10;0.10;;;;;;;;;;5071938;28;20061;-77
2021/07/02 12:15:09;;;;;;;0.00;0.00;;;;;;;;;;5070620;28;20484;-77
2021/07/02 12:17:34;;;;;;;0.10;0.10;;;;;;;;;;5086318;28;20018;-76
2021/07/02 12:19:59;;;;;;;0.00;0.00;;;;;;;;;;5082159;28;20636;-76
2021/07/02 12:22:25;;;;;;;0.20;0.20;;;;;;;;;;5089027;28;20449;-75
2021/07/02 12:24:50;;;;;;;0.20;0.20;;;;;;;;;;5085330;28;20088;-75
2021/07/02 12:27:18;;;;;;;0.10;0.10;;;;;;;;;;5083626;28;20031;-76
2021/07/02 12:29:44;;;;;;;0.00;0.00;;;;;;;;;;5066567;28;20560;-77
2021/07/02 12:32:11;;;;;;;0.10;0.10;;;;;;;;;;5082753;28;20032;-76
2021/07/02 12:34:42;;;;;;;0.10;0.10;;;;;;;;;;5067048;28;20095;-77
2021/07/02 12:37:12;;;;;;;0.20;0.10;;;;;;;;;;5083776;28;20464;-76
2021/07/02 12:39:38;;;;;;;0.10;0.10;;;;;;;;;;5089009;28;20523;-77
2021/07/02 12:42:08;;;;;;;0.10;0.10;;;;;;;;;;5079159;28;20027;-76
2021/07/02 12:44:36;;;;;;;0.00;0.00;;;;;;;;;;5090492;28;20015;-76
2021/07/02 12:47:04;;;;;;;0.10;0.00;;;;;;;;;;5107967;28;20038;-76
2021/07/02 12:49:34;;;;;;;0.10;0.10;;;;;;;;;;5110764;28;20059;-76
2021/07/02 12:57:26;;;;;;;0.00;0.00;;;;;;;;;;5085314;28;20024;-76
2021/07/02 12:59:53;;;;;;;0.10;0.10;;;;;;;;;;5078444;28;20375;-77
2021/07/02 13:02:25;;;;;;;0.10;0.10;;;;;;;;;;5057360;28;20032;-77
2021/07/02 13:04:51;;;;;;;0.10;0.10;;;;;;;;;;5085580;28;20515;-77
2021/07/02 13:07:16;;;;;;;0.00;0.00;;;;;;;;;;5089473;28;20128;-76
2021/07/02 13:09:41;;;;;;;0.00;0.00;;;;;;;;;;5082228;28;20055;-76
2021/07/02 13:12:14;;;;;;;0.10;0.10;;;;;;;;;;5082941;28;20030;-76
2021/07/02 13:14:44;;;;;;;0.10;0.10;;;;;;;;;;5062091;28;20104;-76
2021/07/02 13:17:10;;;;;;;0.10;0.10;;;;;;;;;;5084298;28;20197;-76
2021/07/02 13:19:35;;;;;;;0.00;0.00;;;;;;;;;;5068450;28;20031;-76
2021/07/02 13:22:11;;;;;;;0.10;0.10;;;;;;;;;;5084253;28;20028;-76
2021/07/02 13:24:36;;;;;;;0.20;0.20;;;;;;;;;;5082765;28;20661;-77
2021/07/02 13:27:02;;;;;;;0.10;0.10;;;;;;;;;;5090409;28;20693;-76
2021/07/02 13:29:31;;;;;;;0.10;0.10;;;;;;;;;;5087905;28;20350;-77
2021/07/02 13:31:57;;;;;;;0.20;0.13;;;;;;;;;;5092632;28;20031;-75
2021/07/02 13:34:22;;;;;;;;;;;;;;;;;;5086984;28;20082;-76
2021/07/02 13:36:55;;;;;;;0.10;0.10;;;;;;;;;;5088335;28;19954;-77
2021/07/02 13:39:22;;;;;;;0.00;0.00;;;;;;;;;;5080823;28;20023;-77
2021/07/02 13:41:47;;;;;;;;;;;;;;;;;;5082991;28;20034;-76
2021/07/02 13:44:13;;;;;;;0.00;0.00;;;;;;;;;;5087578;28;19908;-77
2021/07/02 13:46:39;;;;;;;0.10;0.10;;;;;;;;;;5069220;28;20031;-77
2021/07/02 13:49:05;;;;;;;0.10;0.10;;;;;;;;;;5086115;28;20264;-77
2021/07/02 13:51:30;;;;;;;0.10;0.10;;;;;;;;;;5085085;28;20111;-77
2021/07/02 13:53:56;;;;;;;0.10;0.10;;;;;;;;;;5089180;28;20445;-77
2021/07/02 13:56:21;;;;;;;0.00;0.00;;;;;;;;;;5085919;28;20027;-77
2021/07/02 13:58:47;;;;;;;0.00;0.00;;;;;;;;;;5083073;28;20683;-77
2021/07/02 14:01:15;;;;;;;0.00;0.00;;;;;;;;;;5085722;28;20028;-77
2021/07/02 14:03:43;;;;;;;0.10;0.10;;;;;;;;;;5085533;28;20558;-77
2021/07/02 14:06:09;;;;;;;0.10;0.10;;;;;;;;;;5083410;28;20593;-76
2021/07/02 14:08:34;;;;;;;0.10;0.10;;;;;;;;;;5067423;28;20058;-77
2021/07/02 14:11:00;;;;;;;0.00;0.00;;;;;;;;;;5080574;28;20863;-78
2021/07/02 14:13:25;;;;;;;0.00;0.00;;;;;;;;;;5078427;28;20069;-77
2021/07/02 14:15:50;;;;;;;0.00;0.00;;;;;;;;;;5064274;28;20070;-76
2021/07/02 14:18:18;;;;;;;0.00;0.00;;;;;;;;;;5086311;28;20024;-75
2021/07/02 14:20:43;;;;;;;0.00;0.00;;;;;;;;;;5086434;28;20091;-75
2021/07/02 14:23:09;;;;;;;;;;;;;;;;;;5084503;28;20115;-75
2021/07/02 14:25:34;;;;;;;0.00;0.00;;;;;;;;;;5080754;28;20287;-75
2021/07/02 14:28:00;;;;;;;;;;;;;;;;;;5080933;28;20119;-75
2021/07/02 14:30:26;;;;;;;0.00;0.00;;;;;;;;;;5078715;28;19912;-75
2021/07/02 14:32:51;;;;;;;;;;;;;;;;;;5077089;28;20039;-76
2021/07/02 14:35:17;;;;;;;;;;;;;;;;;;5081304;28;20542;-75
2021/07/02 14:37:46;;;;;;;0.00;0.00;;;;;;;;;;5080232;28;19908;-75
2021/07/02 14:40:12;;;;;;;0.00;0.00;;;;;;;;;;5051973;28;20038;-75
2021/07/02 14:42:38;;;;;;;0.00;0.00;;;;;;;;;;5082133;28;20694;-75
2021/07/02 14:45:03;;;;;;;;;;;;;;;;;;5087036;28;20026;-76
2021/07/02 14:47:30;;;;;;;0.00;0.00;;;;;;;;;;5088792;28;19912;-76
2021/07/02 14:49:55;;;;;;;0.00;0.00;;;;;;;;;;5084102;28;20273;-76
2021/07/02 14:52:21;;;;;;;0.00;0.00;;;;;;;;;;5086056;28;20084;-77
2021/07/02 14:54:46;;;;;;;0.00;0.00;;;;;;;;;;5082799;28;20833;-76
2021/07/02 14:57:12;;;;;;;0.00;0.00;;;;;;;;;;5090507;28;20589;-76
2021/07/02 14:59:37;;;;;;;0.00;0.00;;;;;;;;;;5087727;28;20059;-77
2021/07/02 15:02:02;;;;;;;0.00;0.00;;;;;;;;;;5090204;28;20026;-76
2021/07/02 15:04:28;;;;;;;0.20;0.20;;;;;;;;;;5070654;28;20036;-77
2021/07/02 15:06:53;;;;;;;0.00;0.00;;;;;;;;;;5086978;28;20028;-77
2021/07/02 15:09:20;;;;;;;0.00;0.00;;;;;;;;;;5065102;28;20034;-77
2021/07/02 15:11:45;;;;;;;0.10;0.10;;;;;;;;;;5081142;28;20036;-77
2021/07/02 15:14:10;;;;;;;0.10;0.10;;;;;;;;;;5084522;28;20076;-77
2021/07/02 15:16:36;;;;;;;0.10;0.10;;;;;;;;;;5087192;28;20027;-77
2021/07/02 15:19:01;;;;;;;0.10;0.10;;;;;;;;;;5082148;28;20028;-75
2021/07/02 15:21:27;;;;;;;0.00;0.00;;;;;;;;;;5084617;28;20030;-77
2021/07/02 15:23:52;;;;;;;0.00;0.00;;;;;;;;;;5082287;28;20019;-76
2021/07/02 15:26:18;;;;;;;0.00;0.00;;;;;;;;;;5084372;28;20527;-77
2021/07/02 15:28:43;;;;;;;0.00;0.00;;;;;;;;;;5091248;28;20252;-76
2021/07/02 15:31:27;;;;;;;0.10;0.10;;;;;;;;;;5085082;28;20069;-77
2021/07/02 15:33:52;;;;;;;0.00;0.00;;;;;;;;;;5090048;28;20122;-77
2021/07/02 15:36:18;;;;;;;0.10;0.10;;;;;;;;;;5087522;28;20119;-77
2021/07/02 15:38:44;;;;;;;0.10;0.10;;;;;;;;;;5085472;28;20034;-77
2021/07/02 15:41:09;;;;;;;0.08;0.08;;;;;;;;;;5086191;28;20028;-77
2021/07/02 15:43:34;;;;;;;0.00;0.00;;;;;;;;;;5081468;28;20039;-76
2021/07/02 15:46:00;;;;;;;0.00;0.00;;;;;;;;;;5084338;28;20085;-76
2021/07/02 15:48:25;;;;;;;0.10;0.10;;;;;;;;;;5085185;28;20249;-76
2021/07/02 15:50:50;;;;;;;0.10;0.10;;;;;;;;;;5087414;28;20112;-77
2021/07/02 15:53:16;;;;;;;0.10;0.10;;;;;;;;;;5070918;28;20065;-76
2021/07/02 15:55:41;;;;;;;0.10;0.10;;;;;;;;;;5085791;28;20031;-77
2021/07/02 15:58:06;;;;;;;0.10;0.10;;;;;;;;;;5088679;28;20476;-76
2021/07/02 16:00:32;;;;;;;0.00;0.00;;;;;;;;;;5086298;28;20024;-76
2021/07/02 16:02:57;;;;;;;0.10;0.10;;;;;;;;;;5081360;28;20016;-77
2021/07/02 16:05:23;;;;;;;0.10;0.10;;;;;;;;;;5085733;28;20027;-76
2021/07/02 16:07:49;;;;;;;0.10;0.10;;;;;;;;;;5075764;28;20070;-76
2021/07/02 16:10:14;;;;;;;0.00;0.00;;;;;;;;;;5082499;28;20036;-76
2021/07/02 16:12:40;;;;;;;0.10;0.10;;;;;;;;;;5090540;28;20022;-77
2021/07/02 16:15:06;;;;;;;0.07;0.07;;;;;;;;;;5075379;28;20059;-77
2021/07/02 16:17:31;;;;;;;0.10;0.10;;;;;;;;;;5087643;28;20099;-77
2021/07/02 16:19:57;;;;;;;0.05;0.05;;;;;;;;;;5083069;28;20510;-76
2021/07/02 16:22:22;;;;;;;0.10;0.10;;;;;;;;;;5071408;28;20008;-76
2021/07/02 16:24:48;;;;;;;0.00;0.00;;;;;;;;;;5079002;28;20680;-75
2021/07/02 16:27:13;;;;;;;0.00;0.00;;;;;;;;;;5087961;28;20032;-76